createdAt,value
2022-09-28T00:08:40.854Z,0
2022-09-28T00:23:36.841Z,0
2022-09-28T00:38:32.397Z,0
2022-09-28T00:53:28.460Z,0
2022-09-28T01:08:24.681Z,0
2022-09-28T01:23:20.825Z,0
2022-09-28T01:38:16.963Z,0
2022-09-28T01:53:13.662Z,0
2022-09-28T02:08:10.002Z,0
2022-09-28T02:23:06.415Z,0
2022-09-28T02:38:02.491Z,0
2022-09-28T02:52:59.083Z,0
2022-09-28T03:07:54.535Z,0
2022-09-28T03:23:06.313Z,0
2022-09-28T03:37:47.010Z,0
2022-09-28T03:52:43.573Z,0
2022-09-28T04:07:40.017Z,0
2022-09-28T04:22:36.011Z,0
2022-09-28T04:37:32.641Z,0
2022-09-28T04:52:28.917Z,0
2022-09-28T05:07:24.895Z,0.01
2022-09-28T05:22:20.856Z,0
2022-09-28T05:37:17.092Z,0.02
2022-09-28T05:52:13.984Z,0.02
2022-09-28T06:07:09.672Z,0.05
2022-09-28T06:22:06.095Z,0.06
2022-09-28T06:37:02.638Z,0.06
2022-09-28T06:51:58.750Z,0.08
2022-09-28T07:06:54.786Z,0.06
2022-09-28T07:22:01.765Z,0.1
2022-09-28T07:36:47.963Z,0.1
2022-09-28T07:51:44.339Z,0.1
2022-09-28T08:06:40.509Z,0.11
2022-09-28T08:21:37.290Z,0.16
2022-09-28T08:36:33.958Z,0.28
2022-09-28T08:51:30.561Z,0.3
2022-09-28T09:06:27.005Z,0.2
2022-09-28T09:21:23.185Z,0.69
2022-09-28T09:36:20.039Z,0.27
2022-09-28T09:51:16.295Z,0.28
2022-09-28T10:06:12.952Z,0.12
2022-09-28T10:36:05.055Z,0.19
2022-09-28T10:51:01.230Z,0.06
2022-09-28T11:05:56.821Z,0.57
2022-09-28T11:20:53.739Z,0.22
2022-09-28T11:35:49.961Z,0.08
2022-09-28T11:50:45.905Z,0.1
2022-09-28T12:05:42.436Z,0.11
2022-09-28T12:20:39.781Z,0.1
2022-09-28T12:35:36.161Z,0.08
2022-09-28T12:50:41.693Z,0.11
2022-09-28T13:05:29.077Z,0.09
2022-09-28T13:20:24.835Z,0.09
2022-09-28T13:35:20.684Z,0.1
2022-09-28T13:50:16.685Z,0.11
2022-09-28T14:05:12.367Z,0.1
2022-09-28T14:20:08.730Z,0.11
2022-09-28T14:35:05.136Z,0.1
2022-09-28T14:50:01.097Z,0.1
2022-09-28T15:04:57.793Z,0.09
2022-09-28T15:19:53.787Z,0.1
2022-09-28T15:34:49.940Z,0.1
2022-09-28T15:49:46.044Z,0.07
2022-09-28T16:04:42.990Z,0.06
2022-09-28T16:19:38.744Z,0.03
2022-09-28T16:34:34.742Z,0.03
2022-09-28T16:49:30.740Z,0.02
2022-09-28T17:04:26.952Z,0.02
2022-09-28T17:19:22.851Z,0
2022-09-28T17:34:18.902Z,0
2022-09-28T17:49:14.430Z,0
2022-09-28T18:04:15.859Z,0
2022-09-28T18:19:06.593Z,0
2022-09-28T18:34:02.838Z,0
2022-09-28T18:48:58.789Z,0
2022-09-28T19:03:55.073Z,0
2022-09-28T19:18:51.314Z,0
2022-09-28T19:33:47.511Z,0
2022-09-28T19:48:43.599Z,0
2022-09-28T20:03:40.432Z,0
2022-09-28T20:18:36.389Z,0
2022-09-28T20:33:32.698Z,0
2022-09-28T20:48:28.931Z,0
2022-09-28T21:03:25.206Z,0
2022-09-28T21:25:28.346Z,0
2022-09-28T21:40:24.296Z,0
2022-09-28T21:55:20.092Z,0
2022-09-28T22:10:15.914Z,0
2022-09-28T22:25:12.119Z,0
2022-09-28T22:40:08.246Z,0
2022-09-28T22:55:04.657Z,0
2022-09-28T23:10:00.767Z,0
2022-09-28T23:24:56.607Z,0
2022-09-28T23:39:52.915Z,0
2022-09-28T23:54:49.095Z,0.01
